createdAt,value
2023-01-20T00:00:29.060Z,7.80
2023-01-20T00:02:56.276Z,8.60
2023-01-20T00:05:23.303Z,9.10
2023-01-20T00:07:50.226Z,8.70
2023-01-20T00:10:17.744Z,8.50
2023-01-20T00:35:57.784Z,14.50
2023-01-20T00:38:25.023Z,12.00
2023-01-20T00:40:55.617Z,11.10
2023-01-20T00:43:22.734Z,10.00
2023-01-20T00:45:49.876Z,9.30
2023-01-20T00:48:16.792Z,8.70
2023-01-20T00:50:43.851Z,9.30
2023-01-20T00:53:10.950Z,8.70
2023-01-20T00:55:37.877Z,7.60
2023-01-20T00:58:04.971Z,7.90
2023-01-20T01:00:32.024Z,8.70
2023-01-20T01:02:59.223Z,8.20
2023-01-20T01:05:26.375Z,8.10
2023-01-20T01:07:53.620Z,8.40
2023-01-20T01:10:20.715Z,8.70
2023-01-20T01:12:47.828Z,8.00
2023-01-20T01:15:15.458Z,8.80
2023-01-20T01:17:44.096Z,8.70
2023-01-20T01:20:13.376Z,8.40
2023-01-20T01:22:40.520Z,7.70
2023-01-20T01:25:07.620Z,8.40
2023-01-20T01:27:34.670Z,8.10
2023-01-20T01:30:01.739Z,7.70
2023-01-20T01:32:28.755Z,8.20
2023-01-20T01:34:55.822Z,7.30
2023-01-20T01:37:23.083Z,7.10
2023-01-20T01:39:50.007Z,7.40
2023-01-20T01:42:19.815Z,8.70
2023-01-20T01:45:09.999Z,7.60
2023-01-20T01:48:01.982Z,7.60
2023-01-20T01:50:45.664Z,7.40
2023-01-20T01:53:13.504Z,7.20
2023-01-20T01:55:43.967Z,7.80
2023-01-20T01:58:13.144Z,8.00
2023-01-20T02:00:40.240Z,8.00
2023-01-20T02:03:07.227Z,7.10
2023-01-20T02:05:34.268Z,7.10
2023-01-20T02:08:01.276Z,8.10
2023-01-20T02:10:28.455Z,7.70
2023-01-20T02:12:55.763Z,8.40
2023-01-20T02:15:26.421Z,8.00
2023-01-20T02:18:23.531Z,7.60
2023-01-20T02:20:56.622Z,7.30
2023-01-20T02:23:47.343Z,7.70
2023-01-20T02:26:26.691Z,7.70
2023-01-20T02:29:24.503Z,7.60
2023-01-20T02:32:06.853Z,7.50
2023-01-20T02:34:42.945Z,7.00
2023-01-20T02:37:22.429Z,7.20
2023-01-20T02:39:58.444Z,8.50
2023-01-20T02:42:27.984Z,7.40
2023-01-20T02:45:18.609Z,7.00
2023-01-20T02:48:12.635Z,8.30
2023-01-20T02:50:56.645Z,6.90
2023-01-20T02:53:23.597Z,10.90
2023-01-20T02:55:51.365Z,7.40
2023-01-20T02:58:32.903Z,7.00
2023-01-20T03:01:24.854Z,7.00
2023-01-20T03:03:52.954Z,6.30
2023-01-20T03:06:22.984Z,6.60
2023-01-20T03:08:51.508Z,7.00
2023-01-20T03:11:18.476Z,7.40
2023-01-20T03:13:55.023Z,6.90
2023-01-20T03:16:23.231Z,6.50
2023-01-20T03:18:50.439Z,6.50
2023-01-20T03:21:17.638Z,6.60
2023-01-20T03:23:55.774Z,6.90
2023-01-20T03:26:23.254Z,6.80
2023-01-20T03:28:50.295Z,6.70
2023-01-20T03:31:28.217Z,7.20
2023-01-20T03:33:57.583Z,6.10
2023-01-20T03:36:25.592Z,6.20
2023-01-20T03:38:53.035Z,6.00
2023-01-20T03:41:32.080Z,6.00
2023-01-20T03:44:02.154Z,6.40
2023-01-20T03:46:45.554Z,6.00
2023-01-20T03:49:33.584Z,5.80
2023-01-20T03:52:03.997Z,5.40
2023-01-20T03:54:38.615Z,6.00
2023-01-20T03:57:11.967Z,5.80
2023-01-20T03:59:39.451Z,6.50
2023-01-20T04:02:07.646Z,6.30
2023-01-20T04:04:35.828Z,6.00
2023-01-20T04:07:05.006Z,5.90
2023-01-20T04:09:33.393Z,5.90
2023-01-20T04:12:00.268Z,5.50
2023-01-20T04:14:27.364Z,6.00
2023-01-20T04:16:58.161Z,6.00
2023-01-20T04:19:25.633Z,5.70
2023-01-20T04:22:14.553Z,5.30
2023-01-20T04:24:44.733Z,6.10
2023-01-20T04:27:11.611Z,5.10
2023-01-20T04:29:38.764Z,6.40
2023-01-20T04:32:06.019Z,5.90
2023-01-20T04:34:33.121Z,6.30
2023-01-20T04:37:00.483Z,5.60
2023-01-20T04:39:27.568Z,6.00
2023-01-20T04:41:54.577Z,6.10
2023-01-20T04:44:21.683Z,6.50
2023-01-20T04:46:48.631Z,5.80
2023-01-20T04:49:15.693Z,6.80
2023-01-20T04:51:42.690Z,5.80
2023-01-20T04:54:09.692Z,5.60
2023-01-20T04:56:36.587Z,5.90
2023-01-20T04:59:03.674Z,6.50
2023-01-20T05:01:30.901Z,6.00
2023-01-20T05:03:57.857Z,5.60
2023-01-20T05:06:24.951Z,5.80
2023-01-20T05:08:52.124Z,5.90
2023-01-20T05:11:19.432Z,6.60
2023-01-20T05:13:46.411Z,6.30
2023-01-20T05:16:14.119Z,6.40
2023-01-20T05:18:41.121Z,6.30
2023-01-20T05:21:09.035Z,6.30
2023-01-20T05:23:36.119Z,6.30
2023-01-20T05:26:03.054Z,6.30
2023-01-20T05:28:30.050Z,6.70
2023-01-20T05:30:57.204Z,6.90
2023-01-20T05:33:24.175Z,6.90
2023-01-20T05:35:51.131Z,6.70
2023-01-20T05:38:18.161Z,6.30
2023-01-20T05:40:45.074Z,6.60
2023-01-20T05:43:13.068Z,5.40
2023-01-20T05:45:40.232Z,6.60
2023-01-20T05:48:07.152Z,5.80
2023-01-20T05:50:34.421Z,6.00
2023-01-20T05:53:01.602Z,6.50
2023-01-20T05:55:28.488Z,6.30
2023-01-20T05:57:55.525Z,6.00
2023-01-20T06:00:22.843Z,6.80
2023-01-20T06:02:49.827Z,5.70
2023-01-20T06:05:17.480Z,6.20
2023-01-20T06:07:44.859Z,6.70
2023-01-20T06:10:11.829Z,6.30
2023-01-20T06:12:38.940Z,6.90
2023-01-20T06:15:06.714Z,6.00
2023-01-20T06:17:33.754Z,6.40
2023-01-20T06:20:00.731Z,7.30
2023-01-20T06:22:27.878Z,6.70
2023-01-20T06:24:54.992Z,7.10
2023-01-20T06:27:22.005Z,6.60
2023-01-20T06:29:50.942Z,7.30
2023-01-20T06:32:17.903Z,6.30
2023-01-20T06:34:45.047Z,6.30
2023-01-20T06:37:12.076Z,6.00
2023-01-20T06:39:40.537Z,6.00
2023-01-20T06:42:07.713Z,6.30
2023-01-20T06:44:34.745Z,6.50
2023-01-20T06:47:01.703Z,6.20
2023-01-20T06:49:28.755Z,6.40
2023-01-20T06:51:55.847Z,6.40
2023-01-20T06:54:22.854Z,6.20
2023-01-20T06:56:50.086Z,5.90
2023-01-20T06:59:17.142Z,6.50
2023-01-20T07:01:44.171Z,6.60
2023-01-20T07:04:13.866Z,5.80
2023-01-20T07:06:41.006Z,6.30
2023-01-20T07:09:10.030Z,6.40
2023-01-20T07:11:37.348Z,6.80
2023-01-20T07:14:04.870Z,6.40
2023-01-20T07:16:31.857Z,6.70
2023-01-20T07:18:58.919Z,5.90
2023-01-20T07:21:26.703Z,6.10
2023-01-20T07:23:53.752Z,6.50
2023-01-20T07:26:26.514Z,6.90
2023-01-20T07:28:53.842Z,7.30
2023-01-20T07:31:22.600Z,6.90
2023-01-20T07:33:49.975Z,6.80
2023-01-20T07:36:17.128Z,7.00
2023-01-20T07:38:47.378Z,6.80
2023-01-20T07:41:18.303Z,6.40
2023-01-20T07:43:46.230Z,6.30
2023-01-20T07:46:13.944Z,6.80
2023-01-20T07:48:41.188Z,6.30
2023-01-20T10:25:00.067Z,14.10
2023-01-20T10:27:28.819Z,11.80
2023-01-20T10:30:06.606Z,9.70
2023-01-20T10:32:38.162Z,8.80
2023-01-20T10:35:17.406Z,8.70
2023-01-20T10:37:44.714Z,7.40
2023-01-20T10:40:17.815Z,8.30
2023-01-20T10:42:49.101Z,8.00
2023-01-20T10:45:20.247Z,7.30
2023-01-20T10:48:11.304Z,7.00
2023-01-20T10:50:42.440Z,7.60
2023-01-20T10:53:25.087Z,7.50
2023-01-20T10:56:19.027Z,7.40
2023-01-20T10:58:47.777Z,6.80
2023-01-20T11:01:20.175Z,7.60
2023-01-20T11:03:48.150Z,7.40
2023-01-20T11:06:23.429Z,7.10
2023-01-20T11:08:50.946Z,7.30
2023-01-20T11:11:20.553Z,7.20
2023-01-20T11:13:47.876Z,8.10
2023-01-20T11:16:23.034Z,7.70
2023-01-20T11:19:08.557Z,6.80
2023-01-20T11:21:37.093Z,7.50
2023-01-20T11:24:29.776Z,6.80
2023-01-20T11:27:07.178Z,8.20
2023-01-20T11:29:40.115Z,7.20
2023-01-20T11:32:25.157Z,6.70
2023-01-20T11:34:52.270Z,7.80
2023-01-20T11:37:20.786Z,8.10
2023-01-20T11:39:50.698Z,8.80
2023-01-20T11:42:25.554Z,7.70
2023-01-20T11:44:54.051Z,7.40
2023-01-20T11:47:28.226Z,7.60
2023-01-20T11:50:04.322Z,7.50
2023-01-20T11:52:31.706Z,7.60
2023-01-20T11:55:19.462Z,13.90
2023-01-20T11:57:53.039Z,6.80
2023-01-20T12:00:20.041Z,7.10
2023-01-20T12:03:05.992Z,8.60
2023-01-20T12:06:10.688Z,7.70
2023-01-20T12:09:01.047Z,7.20
2023-01-20T12:11:31.933Z,7.30
2023-01-20T12:14:20.952Z,6.90
2023-01-20T12:17:03.316Z,7.30
2023-01-20T12:19:38.050Z,7.10
2023-01-20T12:22:09.770Z,7.10
2023-01-20T12:25:22.168Z,7.00
2023-01-20T12:27:57.952Z,6.50
2023-01-20T12:30:39.612Z,6.50
2023-01-20T12:33:20.593Z,6.90
2023-01-20T12:36:20.144Z,6.60
2023-01-20T12:39:12.125Z,6.50
2023-01-20T12:41:57.954Z,7.80
2023-01-20T12:44:37.108Z,7.10
2023-01-20T12:47:43.053Z,8.90
2023-01-20T12:50:28.744Z,57.00
2023-01-20T12:53:18.274Z,15.50
2023-01-20T12:56:11.128Z,25.50
2023-01-20T12:58:39.854Z,30.50
2023-01-20T13:01:10.494Z,51.10
2023-01-20T13:03:56.720Z,34.40
2023-01-20T13:06:46.130Z,45.00
2023-01-20T13:09:48.594Z,14.00
2023-01-20T13:12:22.637Z,11.00
2023-01-20T13:14:53.384Z,38.60
2023-01-20T13:17:25.951Z,21.20
2023-01-20T13:19:54.411Z,11.10
2023-01-20T13:22:23.555Z,9.70
2023-01-20T13:24:55.043Z,8.70
2023-01-20T13:27:30.602Z,8.30
2023-01-20T13:29:58.939Z,8.30
2023-01-20T13:32:26.991Z,9.30
2023-01-20T13:34:53.912Z,8.80
2023-01-20T13:37:27.066Z,8.80
2023-01-20T13:39:54.968Z,9.40
2023-01-20T13:42:27.986Z,8.40
2023-01-20T13:45:14.956Z,8.00
2023-01-20T13:48:00.667Z,7.60
2023-01-20T13:50:38.286Z,7.30
2023-01-20T13:53:11.454Z,7.50
2023-01-20T13:55:45.024Z,6.80
2023-01-20T13:58:19.509Z,6.00
2023-01-20T14:00:50.836Z,6.70
2023-01-20T14:03:30.676Z,7.00
2023-01-20T14:05:59.886Z,6.50
2023-01-20T14:08:31.182Z,6.00
2023-01-20T14:11:23.681Z,6.50
2023-01-20T14:13:54.667Z,7.00
2023-01-20T14:16:24.939Z,9.50
2023-01-20T14:18:56.890Z,13.90
2023-01-20T14:21:25.430Z,12.30
2023-01-20T14:23:52.606Z,10.50
2023-01-20T14:26:37.344Z,12.40
2023-01-20T14:29:04.308Z,12.60
2023-01-20T14:31:37.622Z,10.90
2023-01-20T14:34:26.423Z,10.00
2023-01-20T14:36:53.671Z,10.60
2023-01-20T14:39:25.196Z,10.00
2023-01-20T14:41:59.679Z,10.10
2023-01-20T14:44:32.596Z,9.60
2023-01-20T14:47:01.904Z,8.30
2023-01-20T14:49:34.597Z,9.00
2023-01-20T14:52:01.791Z,8.40
2023-01-20T14:54:36.663Z,8.40
2023-01-20T14:57:31.069Z,8.80
2023-01-20T15:00:23.793Z,9.10
2023-01-20T15:03:11.983Z,11.40
2023-01-20T15:06:00.952Z,11.60
2023-01-20T15:08:56.693Z,10.80
2023-01-20T15:11:27.186Z,10.00
2023-01-20T15:13:57.093Z,9.50
2023-01-20T15:16:31.404Z,10.00
2023-01-20T15:19:14.731Z,11.80
2023-01-20T15:21:44.118Z,11.70
2023-01-20T15:24:17.113Z,11.20
2023-01-20T15:26:46.195Z,12.50
2023-01-20T15:29:24.443Z,12.00
2023-01-20T15:31:51.924Z,11.20
2023-01-20T15:34:18.976Z,11.40
2023-01-20T15:36:46.120Z,9.40
2023-01-20T15:39:17.137Z,9.70
2023-01-20T17:52:51.470Z,23.30
2023-01-20T17:55:19.558Z,16.20
2023-01-20T17:57:47.526Z,16.60
2023-01-20T18:00:16.133Z,16.30
2023-01-20T18:02:43.252Z,15.20
2023-01-20T18:05:10.263Z,15.00
2023-01-20T18:07:37.912Z,15.20
2023-01-20T18:10:05.957Z,14.90
2023-01-20T18:12:32.971Z,20.80
2023-01-20T18:14:59.933Z,16.00
2023-01-20T18:17:27.956Z,15.80
2023-01-20T18:19:55.161Z,14.20
2023-01-20T18:22:22.128Z,14.90
2023-01-20T18:24:49.012Z,15.60
2023-01-20T18:27:18.775Z,15.50
2023-01-20T18:29:46.678Z,14.80
2023-01-20T18:32:13.557Z,15.70
2023-01-20T18:34:40.491Z,15.50
2023-01-20T18:37:07.524Z,15.00
2023-01-20T18:39:36.669Z,14.90
2023-01-20T18:42:03.744Z,15.60
2023-01-20T18:44:30.690Z,16.70
2023-01-20T18:46:57.698Z,15.90
2023-01-20T18:49:24.721Z,16.10
2023-01-20T18:51:51.684Z,15.50
2023-01-20T18:54:21.189Z,16.90
2023-01-20T18:56:48.245Z,15.80
2023-01-20T18:59:16.519Z,15.50
2023-01-20T19:01:43.716Z,16.10
2023-01-20T19:04:13.037Z,16.50
2023-01-20T19:06:41.666Z,15.60
2023-01-20T19:09:08.990Z,16.00
2023-01-20T19:11:39.678Z,16.90
2023-01-20T19:14:07.920Z,16.90
2023-01-20T19:16:37.939Z,17.00
2023-01-20T19:19:06.327Z,16.00
2023-01-20T19:21:33.857Z,16.00
2023-01-20T19:24:01.666Z,15.80
2023-01-20T19:26:28.649Z,15.70
2023-01-20T19:28:57.410Z,16.40
2023-01-20T19:31:24.744Z,16.80
2023-01-20T19:33:52.948Z,16.00
2023-01-20T19:36:20.092Z,16.00
2023-01-20T19:38:47.273Z,15.20
2023-01-20T19:41:16.199Z,16.30
2023-01-20T19:43:43.737Z,15.70
2023-01-20T19:46:13.014Z,15.20
2023-01-20T19:48:40.100Z,15.90
2023-01-20T19:51:16.655Z,17.00
2023-01-20T19:53:43.749Z,15.90
2023-01-20T19:56:11.423Z,15.20
2023-01-20T19:58:38.932Z,14.80
2023-01-20T20:01:09.783Z,16.50
2023-01-20T20:03:38.160Z,15.00
2023-01-20T20:06:05.947Z,15.10
2023-01-20T20:08:33.755Z,14.70
2023-01-20T20:11:00.795Z,15.70
2023-01-20T20:13:28.934Z,15.30
2023-01-20T20:16:03.225Z,14.50
2023-01-20T20:18:31.344Z,15.80
2023-01-20T20:20:58.539Z,15.90
2023-01-20T20:23:25.637Z,15.80
2023-01-20T20:25:56.285Z,16.30
2023-01-20T20:28:24.167Z,17.60
2023-01-20T20:30:52.739Z,17.60
2023-01-20T20:33:19.816Z,17.00
2023-01-20T20:35:47.725Z,16.80
2023-01-20T20:38:14.793Z,18.80
2023-01-20T20:40:43.008Z,19.80
2023-01-20T20:43:09.922Z,19.10
2023-01-20T20:45:36.860Z,18.50
2023-01-20T20:48:04.677Z,19.10
2023-01-20T20:50:32.877Z,19.50
2023-01-20T20:53:00.548Z,20.80
2023-01-20T20:55:29.488Z,20.00
2023-01-20T20:57:56.898Z,20.10
2023-01-20T21:00:28.165Z,22.20
2023-01-20T21:02:56.364Z,21.50
2023-01-20T21:05:24.417Z,21.80
2023-01-20T21:07:51.378Z,22.80
2023-01-20T21:10:18.862Z,22.30
2023-01-20T21:12:46.997Z,22.00
2023-01-20T21:15:14.026Z,22.60
2023-01-20T21:17:41.437Z,22.10
2023-01-20T21:20:09.253Z,23.50
2023-01-20T21:22:36.218Z,22.30
2023-01-20T21:25:03.281Z,22.20
2023-01-20T21:27:33.360Z,23.40
2023-01-20T21:30:00.252Z,23.50
2023-01-20T21:32:27.274Z,23.80
2023-01-20T21:34:55.172Z,23.60
2023-01-20T21:37:22.173Z,25.40
2023-01-20T21:39:49.221Z,24.00
2023-01-20T21:42:16.305Z,24.10
2023-01-20T21:44:43.321Z,23.90
2023-01-20T21:47:13.253Z,26.40
2023-01-20T21:49:58.660Z,26.50
2023-01-20T21:52:45.352Z,24.20
2023-01-20T21:55:15.981Z,26.20
2023-01-20T21:57:43.179Z,26.50
2023-01-20T22:00:10.947Z,25.30
2023-01-20T22:02:41.043Z,25.30
2023-01-20T22:05:08.413Z,26.00
2023-01-20T22:07:35.520Z,26.00
2023-01-20T22:10:02.591Z,25.20
2023-01-20T22:12:33.660Z,26.20
2023-01-20T22:15:01.921Z,27.40
2023-01-20T22:17:29.041Z,26.40
2023-01-20T22:19:56.038Z,26.10
2023-01-20T22:22:23.703Z,26.80
2023-01-20T22:24:50.815Z,27.60
2023-01-20T22:27:17.733Z,28.40
2023-01-20T22:29:44.740Z,26.70
2023-01-20T22:32:11.776Z,26.60
2023-01-20T22:34:38.732Z,28.50
2023-01-20T22:37:06.044Z,28.80
2023-01-20T22:39:33.140Z,27.00
2023-01-20T22:42:00.056Z,27.60
2023-01-20T22:44:27.181Z,27.70
2023-01-20T22:46:54.312Z,28.20
2023-01-20T22:49:21.237Z,28.10
2023-01-20T22:51:48.313Z,28.10
2023-01-20T22:54:15.263Z,27.10
2023-01-20T22:56:42.233Z,29.00
2023-01-20T22:59:09.999Z,26.50
2023-01-20T23:01:37.390Z,27.80
2023-01-20T23:04:05.319Z,27.30
2023-01-20T23:06:34.751Z,26.30
2023-01-20T23:09:04.792Z,27.00
2023-01-20T23:11:31.920Z,27.40
2023-01-20T23:13:59.276Z,27.10
2023-01-20T23:16:26.303Z,27.10
2023-01-20T23:18:53.337Z,27.00
2023-01-20T23:21:20.611Z,28.40
2023-01-20T23:23:54.076Z,27.70
2023-01-20T23:26:25.651Z,28.20
2023-01-20T23:28:53.682Z,27.90
2023-01-20T23:31:20.767Z,27.30
2023-01-20T23:33:47.887Z,27.20
2023-01-20T23:36:16.007Z,28.80
2023-01-20T23:38:43.065Z,27.30
2023-01-20T23:41:10.827Z,27.10
2023-01-20T23:43:37.851Z,28.10
2023-01-20T23:46:05.726Z,28.40
2023-01-20T23:48:33.294Z,27.10
2023-01-20T23:51:00.344Z,28.90
2023-01-20T23:53:28.178Z,29.00
2023-01-20T23:56:12.994Z,28.20
2023-01-20T23:58:40.296Z,26.70
